Time;durP1;ratioP1;P1;durP2;ratioP2;P2;SDS_P1;SDS_P2;PMS_P1;PMS_P2;Temp;Humidity;BMP_temperature;BMP_pressure;BME280_temperature;BME280_humidity;BME280_pressure;Samples;Min_cycle;Max_cycle;Signal;HPM_P1;HPM_P2
2022/05/01 00:01:27;;;;;;;4.50;2.33;;;;;;;20.26;36.81;102402.41;5092790;28;20043;-60
2022/05/01 00:03:52;;;;;;;3.75;2.40;;;;;;;20.26;37.09;102403.25;5093159;28;20050;-60
2022/05/01 00:06:19;;;;;;;4.43;2.50;;;;;;;20.24;36.88;102404.34;5093451;28;20531;-60
2022/05/01 00:08:47;;;;;;;4.63;2.53;;;;;;;20.22;36.88;102409.72;5092519;28;20268;-60
2022/05/01 00:11:13;;;;;;;4.32;2.42;;;;;;;20.22;36.86;102403.56;5093029;28;20077;-60
2022/05/01 00:13:39;;;;;;;4.65;2.30;;;;;;;20.22;37.02;102408.84;5092961;28;20044;-60
2022/05/01 00:16:05;;;;;;;3.95;2.33;;;;;;;20.21;36.84;102405.38;5092576;28;20077;-60
2022/05/01 00:18:30;;;;;;;3.92;2.20;;;;;;;20.20;36.73;102405.47;5093377;28;20032;-60
2022/05/01 00:20:55;;;;;;;4.00;2.40;;;;;;;20.19;36.92;102414.38;5092093;28;20523;-61
2022/05/01 00:23:20;;;;;;;4.03;2.37;;;;;;;20.16;36.98;102399.53;5093130;28;20284;-61
2022/05/01 00:25:49;;;;;;;4.20;2.22;;;;;;;20.15;37.07;102397.00;5093119;28;20411;-60
2022/05/01 00:28:15;;;;;;;3.90;2.33;;;;;;;20.15;37.08;102399.63;5092169;28;20073;-61
2022/05/01 00:30:44;;;;;;;4.95;2.63;;;;;;;20.15;36.93;102403.13;5093127;28;20028;-61
2022/05/01 00:38:38;;;;;;;4.63;2.63;;;;;;;20.13;37.20;102394.44;5093275;28;20552;-61
2022/05/01 00:41:07;;;;;;;3.83;2.20;;;;;;;20.13;36.97;102390.97;5092768;28;20027;-61
2022/05/01 00:43:32;;;;;;;5.30;2.60;;;;;;;20.11;36.97;102393.69;5091655;28;20044;-61
2022/05/01 00:45:57;;;;;;;4.10;2.30;;;;;;;20.12;36.95;102400.66;5091713;28;20043;-61
2022/05/01 00:48:23;;;;;;;3.57;2.23;;;;;;;20.10;36.95;102395.47;5092792;28;20443;-61
2022/05/01 00:50:49;;;;;;;4.78;2.83;;;;;;;20.08;37.13;102389.44;5092132;28;20031;-61
2022/05/01 00:53:14;;;;;;;4.60;2.55;;;;;;;20.10;36.82;102392.00;5092857;28;20023;-61
2022/05/01 00:55:40;;;;;;;4.35;2.33;;;;;;;20.08;36.97;102392.09;5096860;28;20489;-61
2022/05/01 00:58:10;;;;;;;3.90;2.38;;;;;;;20.08;37.00;102391.25;5095971;28;20395;-60
2022/05/01 01:00:35;;;;;;;4.65;2.70;;;;;;;20.07;36.94;102386.91;5096995;28;20024;-60
2022/05/01 01:03:01;;;;;;;4.40;2.28;;;;;;;20.06;36.94;102380.78;5095857;28;20024;-60
2022/05/01 01:05:27;;;;;;;4.80;2.67;;;;;;;20.04;36.89;102382.66;5096944;28;20016;-60
2022/05/01 01:07:55;;;;;;;3.97;2.50;;;;;;;20.05;36.95;102380.88;5096639;28;20486;-61
2022/05/01 01:10:20;;;;;;;4.18;2.38;;;;;;;20.04;36.91;102381.81;5096026;28;20020;-61
2022/05/01 01:12:56;;;;;;;4.32;2.60;;;;;;;20.03;37.11;102380.97;5096572;28;20043;-60
2022/05/01 01:15:23;;;;;;;4.75;2.30;;;;;;;20.02;36.96;102378.41;5096638;28;20027;-60
2022/05/01 01:17:54;;;;;;;3.95;2.35;;;;;;;20.01;37.01;102380.22;5095368;28;20020;-60
2022/05/01 01:20:21;;;;;;;4.63;2.58;;;;;;;20.02;37.19;102378.41;5096759;28;20032;-61
2022/05/01 01:22:48;;;;;;;4.28;2.50;;;;;;;20.00;37.07;102377.69;5096758;28;20028;-61
2022/05/01 01:25:15;;;;;;;4.78;2.58;;;;;;;20.00;37.00;102381.16;5095762;28;20024;-61
2022/05/01 01:27:41;;;;;;;4.25;2.70;;;;;;;19.98;37.09;102380.44;5096364;28;20020;-60
2022/05/01 01:33:08;;;;;;;3.95;2.28;;;;;;;19.99;36.95;102373.31;5033076;28;20554;-59
2022/05/01 01:35:38;;;;;;;4.38;2.50;;;;;;;19.97;37.09;102372.59;5082900;28;20044;-60
2022/05/01 01:38:04;;;;;;;4.10;2.42;;;;;;;19.97;37.04;102378.72;5095767;28;20482;-59
2022/05/01 01:40:45;;;;;;;4.32;2.80;;;;;;;19.97;36.82;102372.59;5095692;28;20028;-62
2022/05/01 01:43:12;;;;;;;4.15;2.50;;;;;;;19.97;37.01;102372.59;5096020;28;20024;-60
2022/05/01 01:45:37;;;;;;;4.57;2.40;;;;;;;19.94;37.04;102365.69;5095485;28;20074;-61
2022/05/01 01:48:10;;;;;;;4.10;2.50;;;;;;;19.94;37.08;102366.53;5095843;28;20483;-60
2022/05/01 01:50:35;;;;;;;4.00;2.75;;;;;;;19.95;37.08;102364.75;5096253;28;20349;-61
2022/05/01 01:53:01;;;;;;;4.10;2.50;;;;;;;19.94;37.05;102365.69;5095095;28;20463;-61
2022/05/01 01:55:26;;;;;;;4.60;2.63;;;;;;;19.95;36.92;102372.69;5095816;28;20059;-61
2022/05/01 01:57:52;;;;;;;3.95;2.60;;;;;;;19.94;36.35;102374.47;5095963;28;20028;-61
2022/05/01 02:00:20;;;;;;;4.97;2.80;;;;;;;19.93;36.94;102364.84;5095368;28;20060;-62
2022/05/01 02:02:45;;;;;;;4.05;2.70;;;;;;;19.92;36.99;102362.28;5095844;28;20431;-62
2022/05/01 02:05:10;;;;;;;4.23;2.37;;;;;;;19.92;37.11;102372.88;5096044;28;20119;-61
2022/05/01 02:07:36;;;;;;;4.03;2.50;;;;;;;19.90;37.00;102372.97;5095678;28;20300;-59
2022/05/01 02:10:03;;;;;;;4.38;2.50;;;;;;;19.90;37.06;102374.75;5095485;28;20683;-60
2022/05/01 02:12:29;;;;;;;4.68;2.58;;;;;;;19.89;36.86;102365.97;5095576;28;20060;-60
2022/05/01 02:14:55;;;;;;;4.60;2.55;;;;;;;19.89;37.00;102368.63;5094618;28;20427;-60
2022/05/01 02:17:20;;;;;;;4.25;2.47;;;;;;;19.90;37.04;102366.81;5095601;28;20380;-60
2022/05/01 02:19:46;;;;;;;4.00;2.65;;;;;;;19.90;36.99;102369.47;5095593;28;20030;-60
2022/05/01 02:22:11;;;;;;;5.13;2.75;;;;;;;19.90;36.89;102364.16;5094290;28;20422;-60
2022/05/01 02:24:36;;;;;;;4.33;2.70;;;;;;;19.87;37.19;102361.75;5095284;28;20115;-60
2022/05/01 02:27:02;;;;;;;4.40;2.47;;;;;;;19.85;37.22;102361.84;5095222;28;20029;-60
2022/05/01 02:29:27;;;;;;;5.05;2.60;;;;;;;19.84;37.64;102356.66;5094590;28;20362;-59
2022/05/01 02:31:56;;;;;;;5.15;2.60;;;;;;;19.86;37.70;102357.41;5094999;28;20486;-60
2022/05/01 02:34:22;;;;;;;4.30;2.38;;;;;;;19.87;37.81;102354.66;5094615;28;20054;-60
2022/05/01 02:36:51;;;;;;;4.35;2.60;;;;;;;19.89;37.94;102351.91;5095074;28;20028;-60
2022/05/01 02:39:16;;;;;;;4.13;2.33;;;;;;;19.91;37.91;102347.38;5095031;28;20024;-62
2022/05/01 02:41:43;;;;;;;4.40;2.30;;;;;;;19.92;37.63;102341.13;5094532;28;20030;-60
2022/05/01 02:44:09;;;;;;;3.88;2.35;;;;;;;19.96;37.55;102341.78;5094813;28;20054;-60
2022/05/01 02:46:34;;;;;;;4.10;2.28;;;;;;;19.98;37.54;102340.72;5094919;28;20460;-60
2022/05/01 02:49:00;;;;;;;5.63;2.67;;;;;;;20.00;37.28;102338.00;5093705;28;20028;-61
2022/05/01 02:51:25;;;;;;;4.20;2.45;;;;;;;20.01;37.41;102344.94;5094771;28;20352;-61
2022/05/01 02:53:50;;;;;;;3.97;2.40;;;;;;;20.03;37.38;102337.78;5094724;28;20070;-61
2022/05/01 02:56:16;;;;;;;3.93;2.20;;;;;;;20.04;37.40;102340.31;5093962;28;20751;-61
2022/05/01 02:58:41;;;;;;;3.78;2.42;;;;;;;20.05;37.28;102338.53;5094890;28;20081;-61
2022/05/01 03:01:06;;;;;;;4.90;2.50;;;;;;;20.05;37.24;102342.00;5094464;28;20090;-61
2022/05/01 03:03:31;;;;;;;3.67;2.20;;;;;;;20.05;37.11;102339.38;5093800;28;20039;-61
2022/05/01 03:05:58;;;;;;;5.07;2.70;;;;;;;20.06;37.06;102342.84;5094181;28;20034;-61
2022/05/01 03:08:24;;;;;;;4.15;2.50;;;;;;;20.06;36.96;102332.25;5094472;28;20048;-61
2022/05/01 03:10:50;;;;;;;4.93;2.60;;;;;;;20.05;37.03;102334.06;5093510;28;20063;-61
2022/05/01 03:13:15;;;;;;;4.55;2.25;;;;;;;20.06;37.00;102334.91;5094320;28;20046;-61
2022/05/01 03:15:40;;;;;;;3.97;2.42;;;;;;;20.06;36.81;102340.19;5094445;28;20103;-61
2022/05/01 03:23:45;;;;;;;4.45;2.70;;;;;;;20.04;36.79;102332.38;5093793;28;20035;-61
2022/05/01 03:26:11;;;;;;;4.13;2.25;;;;;;;20.05;36.81;102330.59;5093953;28;20032;-61
2022/05/01 03:28:36;;;;;;;4.40;2.47;;;;;;;20.05;36.75;102322.66;5094013;28;20056;-61
2022/05/01 03:31:03;;;;;;;4.32;2.30;;;;;;;20.05;36.77;102331.44;5092974;28;20021;-61
2022/05/01 03:33:32;;;;;;;4.13;2.60;;;;;;;20.05;36.71;102327.94;5094133;28;20024;-61
2022/05/01 03:35:57;;;;;;;3.90;2.70;;;;;;;20.05;36.70;102322.66;5093738;28;20120;-61
2022/05/01 03:38:23;;;;;;;4.20;2.58;;;;;;;20.03;36.76;102320.09;5093292;28;20448;-61
2022/05/01 03:40:51;;;;;;;4.13;2.57;;;;;;;20.01;37.02;102322.00;5093912;28;20020;-61
2022/05/01 03:43:17;;;;;;;4.65;2.65;;;;;;;19.99;37.14;102310.66;5093819;28;20722;-61
2022/05/01 03:45:42;;;;;;;4.45;2.60;;;;;;;19.99;37.74;102313.31;5092991;28;20491;-61
2022/05/01 03:48:08;;;;;;;4.50;2.47;;;;;;;19.98;37.46;102311.63;5093664;28;20369;-60
2022/05/01 03:50:34;;;;;;;4.40;2.55;;;;;;;20.00;37.54;102322.09;5093800;28;20360;-60
2022/05/01 03:53:00;;;;;;;4.45;2.53;;;;;;;20.00;37.46;102309.72;5092757;28;20455;-61
2022/05/01 03:55:25;;;;;;;4.18;2.58;;;;;;;20.01;37.77;102315.84;5093743;28;20032;-61
2022/05/01 03:57:50;;;;;;;4.47;2.60;;;;;;;20.04;37.28;102318.28;5093267;28;20125;-61
2022/05/01 04:00:18;;;;;;;3.90;2.40;;;;;;;20.05;37.40;102317.34;5092822;28;20024;-60
2022/05/01 04:02:45;;;;;;;4.75;2.70;;;;;;;20.06;37.11;102314.59;5093637;28;20336;-60
2022/05/01 04:05:14;;;;;;;4.45;2.70;;;;;;;20.08;37.04;102319.78;5093328;28;20364;-61
2022/05/01 04:07:43;;;;;;;4.18;2.70;;;;;;;20.09;36.79;102317.06;5092667;28;20534;-60
2022/05/01 04:10:09;;;;;;;4.53;2.97;;;;;;;20.08;36.88;102318.00;5093163;28;20032;-60
2022/05/01 04:12:37;;;;;;;4.90;2.83;;;;;;;20.10;36.82;102321.38;5093231;28;20070;-60
2022/05/01 04:15:07;;;;;;;4.50;2.60;;;;;;;20.10;36.54;102316.09;5092121;28;20031;-60
2022/05/01 04:17:40;;;;;;;4.72;2.92;;;;;;;20.10;36.56;102312.59;5093516;28;20476;-60
2022/05/01 04:20:08;;;;;;;4.50;2.95;;;;;;;20.09;36.38;102311.75;5092577;28;20077;-60
2022/05/01 04:22:38;;;;;;;4.68;3.05;;;;;;;20.10;36.48;102313.44;5093298;28;20037;-60
2022/05/01 04:25:05;;;;;;;4.47;2.80;;;;;;;20.08;36.32;102315.34;5092989;28;20031;-60
2022/05/01 04:27:31;;;;;;;4.15;2.60;;;;;;;20.08;36.32;102309.22;5092586;28;20023;-60
2022/05/01 04:29:56;;;;;;;5.37;3.17;;;;;;;20.07;36.33;102315.44;5092075;28;20028;-61
2022/05/01 04:32:22;;;;;;;4.40;2.80;;;;;;;20.07;36.33;102315.44;5093219;28;20265;-61
2022/05/01 04:34:47;;;;;;;4.13;2.83;;;;;;;20.06;36.31;102316.38;5092279;28;20287;-60
2022/05/01 04:37:13;;;;;;;4.85;3.13;;;;;;;20.06;36.27;102319.03;5092818;28;20020;-60
2022/05/01 04:39:38;;;;;;;4.80;3.17;;;;;;;20.05;36.46;102318.19;5092936;28;20502;-60
2022/05/01 04:42:03;;;;;;;4.33;2.60;;;;;;;20.04;36.39;102316.47;5090818;28;20744;-60
2022/05/01 04:44:29;;;;;;;4.68;2.83;;;;;;;20.02;36.58;102322.84;5093031;28;20261;-61
2022/05/01 04:46:54;;;;;;;4.30;3.10;;;;;;;20.01;37.00;102318.50;5092839;28;20100;-61
2022/05/01 04:49:22;;;;;;;3.78;2.53;;;;;;;20.00;37.28;102320.31;5092044;28;20126;-60
2022/05/01 04:51:48;;;;;;;4.15;2.50;;;;;;;20.00;37.23;102317.66;5092940;28;20036;-60
2022/05/01 04:54:13;;;;;;;4.20;2.60;;;;;;;20.01;37.29;102323.78;5092619;28;20028;-60
2022/05/01 04:59:22;;;;;;;4.40;3.03;;;;;;;20.04;37.01;102326.22;5093288;28;20030;-60
2022/05/01 05:01:48;;;;;;;3.90;2.43;;;;;;;20.04;37.05;102331.53;5092630;28;20032;-59
2022/05/01 05:04:13;;;;;;;4.60;2.72;;;;;;;20.06;37.01;102326.97;5091650;28;20119;-60
2022/05/01 05:06:38;;;;;;;4.57;2.92;;;;;;;20.08;36.77;102327.75;5092723;28;20047;-60
2022/05/01 05:11:47;;;;;;;4.55;2.88;;;;;;;20.08;36.50;102325.94;5092813;28;20342;-60
2022/05/01 05:14:13;;;;;;;4.87;2.90;;;;;;;20.09;36.52;102330.28;5092836;28;20016;-61
2022/05/01 05:16:38;;;;;;;4.47;3.05;;;;;;;20.09;36.38;102329.41;5092070;28;20379;-61
2022/05/01 05:19:03;;;;;;;5.40;3.00;;;;;;;20.08;36.31;102328.56;5092585;28;20020;-61
2022/05/01 05:21:29;;;;;;;4.90;3.10;;;;;;;20.08;36.46;102322.44;5092598;28;20090;-61
2022/05/01 05:23:55;;;;;;;4.90;3.10;;;;;;;20.05;36.88;102328.78;5091899;28;20072;-61
2022/05/01 05:26:23;;;;;;;3.90;2.40;;;;;;;20.06;36.97;102334.91;5092828;28;20016;-61
2022/05/01 05:28:48;;;;;;;4.03;2.42;;;;;;;20.06;36.84;102334.91;5092520;28;20084;-60
2022/05/01 05:31:14;;;;;;;3.63;2.50;;;;;;;20.06;36.98;102340.19;5091842;28;20024;-61
2022/05/01 05:33:39;;;;;;;3.45;2.05;;;;;;;20.07;37.17;102344.56;5092341;28;20256;-60
2022/05/01 05:36:04;;;;;;;4.13;2.33;;;;;;;20.08;37.33;102341.81;5092008;28;20024;-62
2022/05/01 05:38:30;;;;;;;4.75;2.65;;;;;;;20.09;37.25;102347.94;5091768;28;20281;-62
2022/05/01 05:40:58;;;;;;;3.90;2.33;;;;;;;20.11;37.38;102343.41;5094837;28;20028;-61
2022/05/01 05:43:23;;;;;;;4.00;2.33;;;;;;;20.13;37.46;102351.25;5096073;28;20376;-61
2022/05/01 05:45:49;;;;;;;4.33;2.30;;;;;;;20.15;37.39;102350.19;5095028;28;20044;-61
2022/05/01 05:48:14;;;;;;;4.80;2.53;;;;;;;20.16;37.14;102351.91;5096049;28;20709;-59
2022/05/01 05:50:39;;;;;;;4.03;2.33;;;;;;;20.21;37.20;102355.06;5095844;28;20024;-61
2022/05/01 05:53:05;;;;;;;3.87;2.30;;;;;;;20.21;37.11;102352.44;5095136;28;20464;-60
2022/05/01 05:55:33;;;;;;;3.13;2.00;;;;;;;20.25;37.08;102355.72;5095930;28;20637;-60
2022/05/01 05:57:59;;;;;;;3.88;2.22;;;;;;;20.28;36.99;102350.22;5095552;28;20523;-61
2022/05/01 06:00:24;;;;;;;3.70;2.30;;;;;;;20.31;37.01;102355.31;5095261;28;20123;-60
2022/05/01 06:02:55;;;;;;;4.60;2.20;;;;;;;20.31;37.12;102357.94;5095548;28;20043;-61
2022/05/01 06:05:20;;;;;;;4.00;2.60;;;;;;;20.33;36.88;102353.44;5095646;28;20728;-61
2022/05/01 06:07:45;;;;;;;3.80;2.23;;;;;;;20.33;37.03;102361.38;5095104;28;20069;-60
2022/05/01 06:10:11;;;;;;;4.10;2.33;;;;;;;20.35;36.99;102355.97;5095495;28;20028;-60
2022/05/01 06:12:41;;;;;;;4.00;2.40;;;;;;;20.37;36.97;102359.34;5094794;28;20320;-60
2022/05/01 06:15:07;;;;;;;4.82;2.50;;;;;;;20.39;36.91;102360.94;5095215;28;20284;-60
2022/05/01 06:17:32;;;;;;;4.40;2.50;;;;;;;20.40;36.85;102356.50;5095674;28;20031;-60
2022/05/01 06:20:00;;;;;;;4.00;2.27;;;;;;;20.39;37.08;102358.28;5094508;28;20123;-59
2022/05/01 06:22:28;;;;;;;4.07;2.13;;;;;;;20.37;37.03;102368.13;5095494;28;20069;-60
2022/05/01 06:24:54;;;;;;;3.83;2.13;;;;;;;20.36;36.91;102361.16;5094896;28;20356;-61
2022/05/01 06:27:22;;;;;;;4.20;2.27;;;;;;;20.36;37.10;102365.59;5094944;28;20065;-61
2022/05/01 06:29:47;;;;;;;4.25;2.55;;;;;;;20.36;37.27;102362.94;5095296;28;20063;-60
2022/05/01 06:32:17;;;;;;;4.05;2.42;;;;;;;20.37;37.04;102368.13;5094926;28;20058;-60
2022/05/01 06:34:44;;;;;;;4.70;2.33;;;;;;;20.37;36.89;102367.31;5094547;28;20032;-61
2022/05/01 06:37:09;;;;;;;4.93;2.42;;;;;;;20.38;36.90;102363.72;5094976;28;20024;-60
2022/05/01 06:39:34;;;;;;;4.43;2.50;;;;;;;20.38;37.10;102363.72;5095169;28;20024;-63
2022/05/01 06:42:03;;;;;;;5.70;2.47;;;;;;;20.37;37.04;102367.31;5094469;28;20146;-60
2022/05/01 06:44:28;;;;;;;4.15;2.58;;;;;;;20.34;37.18;102365.69;5095821;28;20020;-60
2022/05/01 06:46:53;;;;;;;4.40;2.30;;;;;;;20.30;37.50;102373.00;5095673;28;20047;-61
2022/05/01 06:49:19;;;;;;;3.40;2.00;;;;;;;20.29;37.67;102373.94;5094824;28;20279;-60
2022/05/01 06:51:47;;;;;;;4.10;2.50;;;;;;;20.28;37.72;102372.25;5094626;28;20276;-60
2022/05/01 06:54:12;;;;;;;4.05;2.55;;;;;;;20.30;37.82;102372.16;5095009;28;20265;-60
2022/05/01 06:56:41;;;;;;;4.47;2.40;;;;;;;20.30;37.96;102365.06;5094509;28;20529;-60
2022/05/01 06:59:06;;;;;;;5.50;2.03;;;;;;;20.32;38.11;102372.91;5094449;28;20573;-61
2022/05/01 07:01:31;;;;;;;4.03;2.42;;;;;;;20.33;37.53;102371.09;5094601;28;20028;-61
2022/05/01 07:03:57;;;;;;;4.37;2.50;;;;;;;20.35;38.13;102371.84;5093747;28;20107;-60
2022/05/01 07:06:22;;;;;;;3.97;2.63;;;;;;;20.37;38.12;102362.84;5094821;28;20047;-60
2022/05/01 07:08:47;;;;;;;5.20;2.67;;;;;;;20.41;37.93;102374.06;5093921;28;20099;-61
2022/05/01 07:11:15;;;;;;;4.67;2.50;;;;;;;20.45;38.09;102370.28;5094144;28;20028;-61
2022/05/01 07:13:40;;;;;;;4.40;2.47;;;;;;;20.50;37.89;102370.81;5094342;28;20320;-61
2022/05/01 07:16:06;;;;;;;4.63;2.50;;;;;;;20.54;37.90;102377.59;5093112;28;20074;-59
2022/05/01 07:18:31;;;;;;;4.97;2.63;;;;;;;20.56;37.63;102373.03;5094500;28;20272;-59
2022/05/01 07:20:57;;;;;;;4.22;2.60;;;;;;;20.57;37.82;102381.81;5094147;28;20502;-59
2022/05/01 07:23:23;;;;;;;4.03;2.47;;;;;;;20.58;37.93;102376.44;5093705;28;20562;-60
2022/05/01 07:25:49;;;;;;;4.55;2.50;;;;;;;20.61;37.84;102370.94;5094030;28;20743;-61
2022/05/01 07:28:14;;;;;;;4.38;2.53;;;;;;;20.63;37.82;102377.00;5094290;28;20024;-60
2022/05/01 07:30:39;;;;;;;5.47;2.55;;;;;;;20.60;38.54;102374.53;5093483;28;20391;-60
2022/05/01 07:33:08;;;;;;;5.60;3.08;;;;;;;20.57;38.61;102372.09;5094160;28;20047;-60
2022/05/01 07:35:33;;;;;;;6.43;3.00;;;;;;;20.62;39.39;102382.38;5094101;28;20028;-59
2022/05/01 07:37:58;;;;;;;5.85;3.00;;;;;;;20.63;39.45;102387.59;5093071;28;20372;-61
2022/05/01 07:40:27;;;;;;;4.93;2.60;;;;;;;20.68;39.81;102379.34;5094037;28;20024;-59
2022/05/01 07:42:52;;;;;;;6.95;3.08;;;;;;;20.71;40.21;102376.50;5093666;28;20272;-58
2022/05/01 07:45:18;;;;;;;5.43;3.00;;;;;;;20.75;40.04;102375.31;5093087;28;20114;-61
2022/05/01 07:47:43;;;;;;;9.55;3.53;;;;;;;20.77;39.97;102386.66;5094006;28;20032;-60
2022/05/01 07:50:09;;;;;;;7.15;3.22;;;;;;;20.79;39.74;102381.25;5093793;28;20024;-59
2022/05/01 07:52:39;;;;;;;5.38;3.30;;;;;;;20.80;39.70;102388.25;5093216;28;20085;-59
2022/05/01 07:55:06;;;;;;;5.85;3.00;;;;;;;20.81;39.93;102382.84;5093325;28;20036;-58
2022/05/01 07:57:53;;;;;;;6.85;2.78;;;;;;;20.83;39.75;102380.94;5093494;28;20477;-59
2022/05/01 08:00:17;;;;;;;6.38;3.28;;;;;;;20.86;39.85;102374.59;5092487;28;20062;-58
2022/05/01 08:05:29;;;;;;;7.20;3.70;;;;;;;20.83;38.46;102373.00;5092760;28;20035;-60
2022/05/01 08:07:55;;;;;;;7.07;4.20;;;;;;;20.80;38.38;102370.53;5093289;28;20273;-60
2022/05/01 08:10:23;;;;;;;7.00;3.70;;;;;;;20.80;39.22;102370.53;5093298;28;20020;-59
2022/05/01 08:12:49;;;;;;;6.90;3.10;;;;;;;20.73;39.47;102366.63;5092281;28;20043;-61
2022/05/01 08:15:18;;;;;;;6.60;3.22;;;;;;;20.69;39.84;102373.09;5093330;28;20035;-60
2022/05/01 08:17:45;;;;;;;9.65;3.08;;;;;;;20.64;40.13;102368.09;5093246;28;20031;-61
2022/05/01 08:23:03;;;;;;;6.40;2.72;;;;;;;20.60;40.11;102363.09;5093068;28;20524;-60
2022/05/01 08:25:29;;;;;;;7.13;3.13;;;;;;;20.61;40.25;102367.44;5093019;28;20460;-60
2022/05/01 08:27:54;;;;;;;6.10;2.80;;;;;;;20.60;40.41;102361.31;5092000;28;20028;-60
2022/05/01 08:30:19;;;;;;;8.87;2.90;;;;;;;20.60;40.38;102361.31;5092980;28;20276;-62
2022/05/01 08:32:44;;;;;;;8.43;3.10;;;;;;;20.61;40.57;102357.69;5093064;28;20276;-61
2022/05/01 08:35:10;;;;;;;9.37;3.30;;;;;;;20.66;39.64;102362.69;5091623;28;20323;-60
2022/05/01 08:37:35;;;;;;;10.18;4.32;;;;;;;20.70;39.62;102364.19;5093048;28;20036;-58
2022/05/01 08:40:00;;;;;;;15.17;4.20;;;;;;;20.74;39.54;102359.53;5092840;28;20055;-60
2022/05/01 08:42:26;;;;;;;11.90;4.28;;;;;;;20.76;39.45;102355.84;5092200;28;20314;-59
2022/05/01 08:44:52;;;;;;;11.27;4.22;;;;;;;20.79;39.25;102366.22;5092659;28;20024;-59
2022/05/01 08:47:21;;;;;;;10.73;4.70;;;;;;;20.81;39.01;102361.66;5092081;28;20024;-58
2022/05/01 08:49:49;;;;;;;11.05;4.85;;;;;;;20.74;35.69;102355.06;5092621;28;20561;-59
2022/05/01 08:52:18;;;;;;;10.93;4.43;;;;;;;20.70;38.71;102355.41;5092995;28;20032;-59
2022/05/01 08:54:47;;;;;;;10.35;4.72;;;;;;;20.64;40.13;102354.03;5091998;28;20031;-60
2022/05/01 08:57:13;;;;;;;11.98;4.07;;;;;;;20.60;40.39;102352.47;5092576;28;20338;-60
2022/05/01 08:59:40;;;;;;;12.68;4.00;;;;;;;20.61;40.87;102354.19;5092757;28;20529;-60
2022/05/01 09:02:13;;;;;;;13.65;4.00;;;;;;;20.64;40.60;102349.56;5091515;28;20038;-60
2022/05/01 09:04:38;;;;;;;11.05;3.60;;;;;;;20.68;40.39;102358.16;5092812;28;20044;-60
2022/05/01 09:07:04;;;;;;;10.13;3.45;;;;;;;20.71;40.30;102351.78;5091639;28;20056;-59
2022/05/01 09:09:30;;;;;;;8.55;3.80;;;;;;;20.74;39.85;102355.06;5092000;28;20429;-59
2022/05/01 09:14:40;;;;;;;9.63;3.72;;;;;;;20.80;39.81;102359.13;5093286;28;20094;-60
2022/05/01 09:17:23;;;;;;;9.02;3.42;;;;;;;20.81;39.51;102356.34;5095723;28;20130;-60
2022/05/01 09:19:56;;;;;;;12.75;3.25;;;;;;;20.82;39.61;102360.72;5096345;28;20498;-60
2022/05/01 09:22:22;;;;;;;8.82;3.85;;;;;;;20.82;39.67;102347.47;5096041;28;20028;-60
2022/05/01 09:24:56;;;;;;;10.55;3.53;;;;;;;20.86;39.40;102347.25;5096659;28;20163;-61
2022/05/01 09:27:23;;;;;;;11.30;3.03;;;;;;;20.87;37.88;102348.94;5096628;28;20028;-59
2022/05/01 09:29:49;;;;;;;11.13;3.67;;;;;;;20.87;38.84;102348.94;5095249;28;20498;-60
2022/05/01 09:32:33;;;;;;;7.90;2.78;;;;;;;20.86;38.99;102350.75;5096541;28;20056;-60
2022/05/01 09:34:58;;;;;;;;;;;;;;;20.86;39.21;102360.50;5096371;28;20028;-60
2022/05/01 09:37:29;;;;;;;9.70;3.30;;;;;;;20.87;39.02;102354.22;5095349;28;19912;-60
2022/05/01 09:39:54;;;;;;;7.00;2.75;;;;;;;20.87;39.21;102349.81;5095882;28;20819;-58
2022/05/01 09:42:21;;;;;;;8.23;3.10;;;;;;;20.86;39.20;102348.09;5096102;28;20067;-59
2022/05/01 09:45:05;;;;;;;7.68;3.20;;;;;;;20.87;38.90;102349.81;5095586;28;20360;-59
2022/05/01 09:47:34;;;;;;;6.35;3.00;;;;;;;20.88;38.97;102348.81;5096256;28;20035;-58
2022/05/01 09:50:01;;;;;;;6.65;2.92;;;;;;;20.89;38.85;102347.88;5095844;28;20028;-59
2022/05/01 09:52:57;;;;;;;6.85;2.80;;;;;;;20.89;38.96;102352.34;5095151;28;20506;-59
2022/05/01 09:55:24;;;;;;;7.00;2.72;;;;;;;20.85;39.13;102354.34;5095878;28;20032;-64
2022/05/01 09:58:00;;;;;;;7.53;2.97;;;;;;;20.87;39.05;102354.22;5095464;28;20088;-62
2022/05/01 10:00:42;;;;;;;7.60;2.50;;;;;;;20.89;38.96;102347.88;5096471;28;20079;-66
2022/05/01 10:03:31;;;;;;;7.82;2.95;;;;;;;20.92;39.03;102352.09;5095526;28;20111;-66
2022/05/01 10:05:58;;;;;;;5.78;2.42;;;;;;;20.97;39.03;102345.53;5095053;28;20476;-68
2022/05/01 10:08:24;;;;;;;7.28;2.95;;;;;;;21.01;38.81;102343.50;5095928;28;20052;-61
2022/05/01 10:10:55;;;;;;;6.80;3.20;;;;;;;21.07;38.49;102348.38;5100596;28;20024;-62
2022/05/01 10:13:23;;;;;;;8.32;2.90;;;;;;;21.16;38.21;102344.25;5097121;28;20065;-61
2022/05/01 10:15:50;;;;;;;8.32;2.55;;;;;;;21.24;37.80;102341.91;5096162;28;20035;-64
2022/05/01 10:18:16;;;;;;;8.30;2.65;;;;;;;21.33;37.54;102338.59;5097770;28;20020;-64
2022/05/01 10:20:42;;;;;;;5.03;2.45;;;;;;;21.39;37.55;102339.94;5095324;28;20065;-64
2022/05/01 10:23:09;;;;;;;6.10;2.55;;;;;;;21.44;37.55;102334.31;5095820;28;20028;-64
2022/05/01 10:25:37;;;;;;;7.00;2.90;;;;;;;21.48;37.37;102330.50;5097203;28;20028;-62
2022/05/01 10:28:25;;;;;;;5.82;2.38;;;;;;;21.54;37.27;102328.28;5094479;28;20035;-63
2022/05/01 10:34:13;;;;;;;5.70;2.27;;;;;;;21.66;37.11;102329.16;5094098;28;20028;-62
2022/05/01 10:36:52;;;;;;;6.15;2.70;;;;;;;21.72;37.00;102320.75;5095490;28;20039;-66
2022/05/01 10:39:21;;;;;;;5.10;2.15;;;;;;;21.73;37.01;102318.97;5095156;28;20495;-63
2022/05/01 10:41:47;;;;;;;6.40;2.25;;;;;;;21.74;36.73;102318.00;5094379;28;20069;-61
2022/05/01 10:44:35;;;;;;;10.60;2.42;;;;;;;21.78;37.09;102316.81;5094867;28;20028;-62
2022/05/01 10:47:04;;;;;;;6.47;2.15;;;;;;;21.81;37.02;102315.72;5094159;28;20032;-61
2022/05/01 10:49:41;;;;;;;4.40;2.10;;;;;;;21.83;37.10;102313.84;5094956;28;20471;-61
2022/05/01 10:52:13;;;;;;;4.93;2.10;;;;;;;21.85;37.21;102312.75;5094604;28;20111;-62
2022/05/01 10:54:39;;;;;;;5.82;2.50;;;;;;;21.87;36.99;102307.31;5094127;28;20429;-62
2022/05/01 10:57:10;;;;;;;6.68;2.30;;;;;;;21.88;36.54;102303.72;5095027;28;20024;-64
2022/05/01 10:59:43;;;;;;;5.50;2.22;;;;;;;21.91;36.66;102308.78;5095242;28;20024;-63
2022/05/01 11:02:38;;;;;;;5.72;2.22;;;;;;;21.92;36.76;102305.16;5093929;28;20497;-63
2022/05/01 11:05:05;;;;;;;7.15;2.30;;;;;;;21.91;36.76;102296.38;5094464;28;20026;-64
2022/05/01 11:07:34;;;;;;;4.93;2.40;;;;;;;21.92;36.50;102302.50;5094557;28;20135;-62
2022/05/01 11:10:00;;;;;;;6.43;2.20;;;;;;;21.93;36.92;102298.91;5094073;28;20036;-63
2022/05/01 11:12:28;;;;;;;5.30;2.25;;;;;;;21.91;36.81;102296.38;5094862;28;20036;-60
2022/05/01 11:15:08;;;;;;;5.68;2.00;;;;;;;21.90;36.51;102294.69;5093964;28;20403;-61
2022/05/01 11:17:36;;;;;;;4.65;2.15;;;;;;;21.91;36.40;102298.19;5095075;28;20472;-60
2022/05/01 11:20:08;;;;;;;6.07;2.25;;;;;;;21.87;36.37;102289.59;5094570;28;20028;-60
2022/05/01 11:22:33;;;;;;;5.70;2.47;;;;;;;21.89;36.41;102289.50;5093992;28;20016;-60
2022/05/01 11:24:59;;;;;;;4.47;2.00;;;;;;;21.88;36.12;102280.66;5094495;28;20028;-60
2022/05/01 11:27:24;;;;;;;5.45;2.20;;;;;;;21.88;36.16;102279.84;5094343;28;20057;-60
2022/05/01 11:30:08;;;;;;;5.28;2.10;;;;;;;21.85;36.38;102280.06;5093541;28;20471;-60
2022/05/01 11:32:45;;;;;;;4.32;1.92;;;;;;;21.82;36.43;102280.28;5094678;28;20038;-61
2022/05/01 11:35:11;;;;;;;5.18;1.92;;;;;;;21.80;36.24;102275.09;5094888;28;20085;-61
2022/05/01 11:38:07;;;;;;;5.55;1.90;;;;;;;21.81;36.30;102276.78;5094972;28;20032;-61
2022/05/01 11:40:35;;;;;;;4.63;2.03;;;;;;;21.83;36.44;102268.72;5096193;28;20032;-59
2022/05/01 11:43:20;;;;;;;3.85;1.77;;;;;;;21.84;36.50;102270.38;5094795;28;20028;-62
2022/05/01 11:45:46;;;;;;;4.32;2.00;;;;;;;21.84;35.97;102267.75;5094640;28;20020;-59
2022/05/01 11:48:15;;;;;;;5.88;2.15;;;;;;;21.86;36.09;102263.19;5093673;28;20046;-62
2022/05/01 11:50:45;;;;;;;4.35;2.17;;;;;;;21.84;35.90;102259.78;5093621;28;20036;-61
2022/05/01 11:53:30;;;;;;;3.83;1.67;;;;;;;21.83;36.35;102255.44;5093698;28;20104;-62
2022/05/01 12:04:30;;;;;;;3.97;1.83;;;;;;;21.82;35.51;102246.63;5097312;28;20035;-61
2022/05/01 12:07:15;;;;;;;5.07;1.80;;;;;;;21.83;35.08;102245.69;5093265;28;20024;-62